createdAt,value
2023-03-15T00:00:27.409Z,67.63
2023-03-15T00:03:18.261Z,68.48
2023-03-15T00:06:08.376Z,68.20
2023-03-15T00:08:57.720Z,68.21
2023-03-15T00:11:47.429Z,67.97
2023-03-15T00:14:38.175Z,67.68
2023-03-15T00:17:27.605Z,68.07
2023-03-15T00:20:19.493Z,67.84
2023-03-15T00:23:09.635Z,68.29
2023-03-15T00:25:59.141Z,68.17
2023-03-15T00:28:48.396Z,68.68
2023-03-15T00:31:37.563Z,68.01
2023-03-15T00:34:27.122Z,68.64
2023-03-15T00:37:19.754Z,68.31
2023-03-15T00:40:12.316Z,68.75
2023-03-15T00:43:01.480Z,68.52
2023-03-15T00:45:51.412Z,67.78
2023-03-15T00:48:41.213Z,67.86
2023-03-15T00:51:32.022Z,67.91
2023-03-15T00:54:23.890Z,67.85
2023-03-15T00:57:13.543Z,67.41
2023-03-15T01:00:09.406Z,68.06
2023-03-15T01:02:59.035Z,67.71
2023-03-15T01:05:48.440Z,68.59
2023-03-15T01:08:38.076Z,68.12
2023-03-15T01:11:30.084Z,68.46
2023-03-15T01:14:20.453Z,68.61
2023-03-15T01:17:09.942Z,68.33
2023-03-15T01:20:00.040Z,68.50
2023-03-15T01:22:49.679Z,68.26
2023-03-15T01:25:38.872Z,69.43
2023-03-15T01:28:29.805Z,69.69
2023-03-15T01:31:22.663Z,69.34
2023-03-15T01:34:12.317Z,70.34
2023-03-15T01:37:02.935Z,70.47
2023-03-15T01:40:01.729Z,70.31
2023-03-15T01:43:15.869Z,70.87
2023-03-15T01:46:34.876Z,70.80
2023-03-15T01:49:35.363Z,71.65
2023-03-15T01:52:31.552Z,71.05
2023-03-15T01:55:24.225Z,70.48
2023-03-15T01:58:28.673Z,71.73
2023-03-15T02:01:21.663Z,71.07
2023-03-15T02:04:15.581Z,70.68
2023-03-15T02:07:09.733Z,71.18
2023-03-15T02:10:05.582Z,71.66
2023-03-15T02:12:59.549Z,71.09
2023-03-15T02:15:49.714Z,71.19
2023-03-15T02:18:48.233Z,71.31
2023-03-15T02:21:51.718Z,71.19
2023-03-15T02:24:49.161Z,72.39
2023-03-15T02:27:42.158Z,72.46
2023-03-15T02:30:31.572Z,72.86
2023-03-15T02:33:25.309Z,72.89
2023-03-15T02:36:21.770Z,72.49
2023-03-15T02:39:19.631Z,72.14
2023-03-15T02:42:09.841Z,72.38
2023-03-15T02:45:00.678Z,71.99
2023-03-15T02:47:50.872Z,72.57
2023-03-15T02:50:40.582Z,73.20
2023-03-15T02:53:31.727Z,73.38
2023-03-15T02:56:20.924Z,72.37
2023-03-15T02:59:10.271Z,72.72
2023-03-15T03:02:01.411Z,73.37
2023-03-15T03:04:52.748Z,73.22
2023-03-15T03:07:43.120Z,73.61
2023-03-15T03:10:32.635Z,73.66
2023-03-15T03:13:23.512Z,73.93
2023-03-15T03:16:13.512Z,74.78
2023-03-15T03:19:06.130Z,75.26
2023-03-15T03:21:57.591Z,74.63
2023-03-15T03:24:47.280Z,74.51
2023-03-15T03:27:38.996Z,74.37
2023-03-15T03:30:31.259Z,74.47
2023-03-15T03:33:21.336Z,74.27
2023-03-15T03:36:13.224Z,74.08
2023-03-15T03:39:02.912Z,73.52
2023-03-15T03:41:52.431Z,74.04
2023-03-15T03:44:41.886Z,74.63
2023-03-15T03:47:31.360Z,74.19
2023-03-15T03:50:21.208Z,74.59
2023-03-15T03:53:12.225Z,74.84
2023-03-15T03:56:04.218Z,74.17
2023-03-15T03:58:53.400Z,74.63
2023-03-15T04:01:48.406Z,73.79
2023-03-15T04:04:41.351Z,74.11
2023-03-15T04:07:36.152Z,73.96
2023-03-15T04:10:27.903Z,74.65
2023-03-15T04:13:17.660Z,73.86
2023-03-15T04:16:08.485Z,74.37
2023-03-15T04:19:14.095Z,74.73
2023-03-15T04:22:06.801Z,75.01
2023-03-15T04:25:12.823Z,75.19
2023-03-15T04:28:14.536Z,74.88
2023-03-15T04:31:27.363Z,75.21
2023-03-15T04:34:38.892Z,75.55
2023-03-15T04:37:48.306Z,75.61
2023-03-15T04:40:52.061Z,75.75
2023-03-15T04:43:49.579Z,74.71
2023-03-15T04:46:58.266Z,74.81
2023-03-15T04:50:04.599Z,75.23
2023-03-15T04:53:07.988Z,75.46
2023-03-15T04:56:17.651Z,75.14
2023-03-15T04:59:39.204Z,75.98
2023-03-15T05:02:52.236Z,76.12
2023-03-15T05:06:08.169Z,75.57
2023-03-15T05:09:19.317Z,76.18
2023-03-15T05:12:47.364Z,75.96
2023-03-15T05:15:47.271Z,75.67
2023-03-15T05:18:57.318Z,75.40
2023-03-15T05:22:09.725Z,75.39
2023-03-15T05:25:25.583Z,75.57
2023-03-15T05:28:34.925Z,75.84
2023-03-15T05:31:37.216Z,75.54
2023-03-15T05:34:29.801Z,74.91
2023-03-15T05:37:24.974Z,74.98
2023-03-15T05:40:45.105Z,74.41
2023-03-15T05:43:53.042Z,75.09
2023-03-15T05:47:03.921Z,75.45
2023-03-15T05:50:23.297Z,74.96
2023-03-15T05:53:19.712Z,75.05
2023-03-15T05:56:26.909Z,75.39
2023-03-15T05:59:36.010Z,75.53
2023-03-15T06:02:45.648Z,74.73
2023-03-15T06:05:53.538Z,75.84
2023-03-15T06:08:52.333Z,75.94
2023-03-15T06:11:42.050Z,75.42
2023-03-15T06:14:35.065Z,75.13
2023-03-15T06:17:29.497Z,75.09
2023-03-15T06:20:20.652Z,75.45
2023-03-15T06:23:10.607Z,75.15
2023-03-15T06:26:06.994Z,74.35
2023-03-15T06:28:57.219Z,74.33
2023-03-15T06:31:48.187Z,74.32
2023-03-15T06:34:38.347Z,74.36
2023-03-15T06:37:35.331Z,75.73
2023-03-15T06:40:25.818Z,75.52
2023-03-15T06:43:19.628Z,75.73
2023-03-15T06:46:09.297Z,74.86
2023-03-15T06:48:58.742Z,75.73
2023-03-15T06:51:48.939Z,75.59
2023-03-15T06:54:39.848Z,75.62
2023-03-15T06:57:29.176Z,76.15
2023-03-15T07:00:19.695Z,75.40
2023-03-15T07:03:09.139Z,75.24
2023-03-15T07:05:58.464Z,74.25
2023-03-15T07:08:47.870Z,73.76
2023-03-15T07:11:38.529Z,73.85
2023-03-15T07:14:27.705Z,74.19
2023-03-15T07:17:17.140Z,73.20
2023-03-15T07:20:08.310Z,72.70
2023-03-15T07:22:57.629Z,72.41
2023-03-15T07:25:55.081Z,72.80
2023-03-15T07:28:46.757Z,71.71
2023-03-15T07:31:36.126Z,72.17
2023-03-15T07:34:25.388Z,72.01
2023-03-15T07:37:14.688Z,72.65
2023-03-15T07:40:09.748Z,72.99
2023-03-15T07:42:59.068Z,73.26
2023-03-15T07:45:49.781Z,72.71
2023-03-15T07:48:38.952Z,73.37
2023-03-15T07:51:28.184Z,73.13
2023-03-15T07:54:17.485Z,72.62
2023-03-15T07:57:07.376Z,72.57
2023-03-15T07:59:56.528Z,72.67
2023-03-15T08:02:47.159Z,72.22
2023-03-15T08:05:36.967Z,72.81
2023-03-15T08:08:26.364Z,72.80
2023-03-15T08:11:15.975Z,73.76
2023-03-15T08:14:05.842Z,73.25
2023-03-15T08:16:55.267Z,73.47
2023-03-15T08:19:46.342Z,73.66
2023-03-15T08:22:38.122Z,73.71
2023-03-15T08:25:27.860Z,74.22
2023-03-15T08:28:17.197Z,74.00
2023-03-15T08:31:09.044Z,74.05
2023-03-15T08:33:59.013Z,75.03
2023-03-15T08:36:50.290Z,74.46
2023-03-15T08:39:39.755Z,75.58
2023-03-15T08:42:29.387Z,75.63
2023-03-15T08:45:18.804Z,76.86
2023-03-15T08:48:08.345Z,76.04
2023-03-15T08:51:03.333Z,76.84
2023-03-15T08:53:54.494Z,76.53
2023-03-15T08:56:44.630Z,76.79
2023-03-15T08:59:33.945Z,76.98
2023-03-15T09:02:23.696Z,77.74
2023-03-15T09:05:13.006Z,77.25
2023-03-15T09:08:02.358Z,77.26
2023-03-15T09:10:56.801Z,78.00
2023-03-15T09:13:46.090Z,78.00
2023-03-15T09:16:35.525Z,77.90
2023-03-15T09:19:24.884Z,77.98
2023-03-15T09:22:16.505Z,78.52
2023-03-15T09:25:07.256Z,77.71
2023-03-15T09:27:58.280Z,78.52
2023-03-15T09:30:47.536Z,78.87
2023-03-15T09:33:37.210Z,78.81
2023-03-15T09:36:26.541Z,79.16
2023-03-15T09:39:15.721Z,79.61
2023-03-15T09:42:10.543Z,78.93
2023-03-15T09:45:09.137Z,79.77
2023-03-15T09:48:09.473Z,79.58
2023-03-15T09:51:05.843Z,79.46
2023-03-15T09:54:02.148Z,80.54
2023-03-15T09:56:58.285Z,80.20
2023-03-15T09:59:52.305Z,80.59
2023-03-15T10:02:50.065Z,80.20
2023-03-15T10:05:43.617Z,80.48
2023-03-15T10:08:34.438Z,80.98
2023-03-15T10:11:35.519Z,80.46
2023-03-15T10:14:40.961Z,81.51
2023-03-15T10:17:40.894Z,81.64
2023-03-15T10:20:35.866Z,81.50
2023-03-15T10:23:37.243Z,81.80
2023-03-15T10:26:34.268Z,81.91
2023-03-15T10:29:28.349Z,82.08
2023-03-15T10:32:20.235Z,82.11
2023-03-15T10:35:17.236Z,82.23
2023-03-15T10:38:16.646Z,82.49
2023-03-15T10:41:08.838Z,82.35
2023-03-15T10:44:03.222Z,82.64
2023-03-15T10:47:21.595Z,83.14
2023-03-15T10:50:19.157Z,82.71
2023-03-15T10:53:20.878Z,82.60
2023-03-15T10:56:23.242Z,82.69
2023-03-15T10:59:20.388Z,82.66
2023-03-15T11:02:22.759Z,82.65
2023-03-15T11:05:20.228Z,82.41
2023-03-15T11:08:16.336Z,81.73
2023-03-15T11:11:06.425Z,81.77
2023-03-15T11:14:02.139Z,81.55
2023-03-15T11:16:55.174Z,81.83
2023-03-15T11:19:55.376Z,81.51
2023-03-15T11:22:44.738Z,81.53
2023-03-15T11:25:35.430Z,81.17
2023-03-15T11:28:29.353Z,81.21
2023-03-15T11:31:18.643Z,80.45
2023-03-15T11:34:13.762Z,80.82
2023-03-15T11:37:13.097Z,81.08
2023-03-15T11:40:12.901Z,80.85
2023-03-15T11:43:10.265Z,81.30
2023-03-15T11:46:04.786Z,81.44
2023-03-15T11:49:12.404Z,81.45
2023-03-15T11:52:01.920Z,81.80
2023-03-15T11:54:51.970Z,82.09
2023-03-15T11:57:46.827Z,82.76
2023-03-15T12:00:57.560Z,82.60
2023-03-15T12:03:46.930Z,82.70
2023-03-15T12:06:39.434Z,82.97
2023-03-15T12:09:52.434Z,83.11
2023-03-15T12:12:47.861Z,83.76
2023-03-15T12:15:47.644Z,83.47
2023-03-15T12:18:46.945Z,83.31
2023-03-15T12:21:41.470Z,83.65
2023-03-15T12:24:36.406Z,83.77
2023-03-15T12:27:29.531Z,83.49
2023-03-15T12:30:25.101Z,83.47
2023-03-15T12:33:19.659Z,83.33
2023-03-15T12:36:18.453Z,83.77
2023-03-15T12:39:38.348Z,83.63
2023-03-15T12:43:13.508Z,83.62
2023-03-15T12:46:02.789Z,83.90
2023-03-15T12:49:08.231Z,83.68
2023-03-15T12:52:01.257Z,83.66
2023-03-15T12:54:56.690Z,83.51
2023-03-15T12:57:54.152Z,83.43
2023-03-15T13:00:45.602Z,83.41
2023-03-15T13:03:37.500Z,82.97
2023-03-15T13:07:05.447Z,82.72
2023-03-15T13:10:22.992Z,82.20
2023-03-15T13:13:35.188Z,81.80
2023-03-15T13:16:35.701Z,81.69
2023-03-15T13:19:28.968Z,81.27
2023-03-15T13:22:33.977Z,81.48
2023-03-15T13:25:33.672Z,81.19
2023-03-15T13:28:27.294Z,81.52
2023-03-15T13:31:24.399Z,81.12
2023-03-15T13:37:48.559Z,80.64
2023-03-15T13:40:47.719Z,81.01
2023-03-15T13:43:40.027Z,80.36
2023-03-15T13:46:33.290Z,80.52
2023-03-15T13:49:23.304Z,80.92
2023-03-15T13:52:14.931Z,80.60
2023-03-15T13:55:07.074Z,80.66
2023-03-15T13:58:00.989Z,80.65
2023-03-15T14:00:50.802Z,80.84
2023-03-15T14:03:43.400Z,81.02
2023-03-15T14:06:32.780Z,81.11
2023-03-15T14:09:28.706Z,80.92
2023-03-15T14:12:23.962Z,81.25
2023-03-15T14:15:19.475Z,81.65
2023-03-15T14:18:20.600Z,82.09
2023-03-15T14:21:16.931Z,82.52
2023-03-15T14:24:08.709Z,82.75
2023-03-15T14:27:01.785Z,82.85
2023-03-15T14:29:55.732Z,82.89
2023-03-15T14:32:54.481Z,83.35
2023-03-15T14:35:46.242Z,83.66
2023-03-15T14:38:38.304Z,83.58
2023-03-15T14:41:34.032Z,83.95
2023-03-15T14:44:23.382Z,84.46
2023-03-15T14:47:18.141Z,84.72
2023-03-15T14:50:14.941Z,84.52
2023-03-15T14:53:07.244Z,84.33
2023-03-15T14:55:56.495Z,85.22
2023-03-15T14:58:45.696Z,84.77
2023-03-15T15:01:36.603Z,85.11
2023-03-15T15:04:31.095Z,85.65
2023-03-15T15:07:20.818Z,85.84
2023-03-15T15:10:12.060Z,85.66
2023-03-15T15:13:06.329Z,85.73
2023-03-15T15:15:58.091Z,85.38
2023-03-15T15:18:47.646Z,85.97
2023-03-15T15:21:39.200Z,85.97
2023-03-15T15:24:28.849Z,85.65
2023-03-15T15:27:18.193Z,85.71
2023-03-15T15:30:16.197Z,85.95
2023-03-15T15:33:06.003Z,85.95
2023-03-15T15:35:58.905Z,86.05
2023-03-15T15:38:49.923Z,86.49
2023-03-15T15:41:39.246Z,86.20
2023-03-15T15:44:28.524Z,86.59
2023-03-15T15:47:17.784Z,86.30
2023-03-15T15:50:08.129Z,86.90
2023-03-15T15:52:57.384Z,87.18
2023-03-15T15:55:48.185Z,87.51
2023-03-15T15:58:37.497Z,87.36
2023-03-15T16:01:27.246Z,87.75
2023-03-15T16:04:17.216Z,88.10
2023-03-15T16:07:08.020Z,88.10
2023-03-15T16:09:59.501Z,88.37
2023-03-15T16:12:52.163Z,88.54
2023-03-15T16:15:41.430Z,88.41
2023-03-15T16:18:31.315Z,88.21
2023-03-15T16:21:33.026Z,88.81
2023-03-15T16:24:27.041Z,89.21
2023-03-15T16:27:19.314Z,88.63
2023-03-15T16:30:22.101Z,89.09
2023-03-15T16:33:16.443Z,89.01
2023-03-15T16:36:06.380Z,88.82
2023-03-15T16:38:57.154Z,89.39
2023-03-15T16:41:47.202Z,89.16
2023-03-15T16:44:36.968Z,89.89
2023-03-15T16:47:27.651Z,89.68
2023-03-15T16:50:17.774Z,89.24
2023-03-15T16:53:11.217Z,89.26
2023-03-15T16:56:00.654Z,89.47
2023-03-15T16:58:54.119Z,89.39
2023-03-15T17:01:43.472Z,89.11
2023-03-15T17:04:37.012Z,89.64
2023-03-15T17:07:32.700Z,89.41
2023-03-15T17:10:25.761Z,89.90
2023-03-15T17:13:18.511Z,89.53
2023-03-15T17:16:11.326Z,89.97
2023-03-15T17:19:01.606Z,90.06
2023-03-15T17:21:53.376Z,90.24
2023-03-15T17:24:42.694Z,90.30
2023-03-15T17:27:37.098Z,90.65
2023-03-15T17:30:28.159Z,90.71
2023-03-15T17:33:17.558Z,90.57
2023-03-15T17:36:09.904Z,90.75
2023-03-15T17:39:00.584Z,90.68
2023-03-15T17:41:50.375Z,91.21
2023-03-15T17:44:39.753Z,91.43
2023-03-15T17:47:29.297Z,91.56
2023-03-15T17:50:19.546Z,91.29
2023-03-15T17:53:16.961Z,92.08
2023-03-15T17:56:09.572Z,92.23
2023-03-15T17:58:58.981Z,92.34
2023-03-15T18:01:48.975Z,92.17
2023-03-15T18:04:38.233Z,92.57
2023-03-15T18:07:29.688Z,91.93
2023-03-15T18:10:23.901Z,92.44
2023-03-15T18:13:18.344Z,92.39
2023-03-15T18:16:08.223Z,92.98
2023-03-15T18:18:57.649Z,92.88
2023-03-15T18:21:46.864Z,92.56
2023-03-15T18:24:36.068Z,93.07
2023-03-15T18:27:25.342Z,92.92
2023-03-15T18:30:18.988Z,93.38
2023-03-15T18:33:08.345Z,92.92
2023-03-15T18:35:57.707Z,93.24
2023-03-15T18:38:47.450Z,93.94
2023-03-15T18:41:36.892Z,93.79
2023-03-15T18:44:26.161Z,93.82
2023-03-15T18:47:16.860Z,93.84
2023-03-15T18:50:10.592Z,93.91
2023-03-15T18:53:06.175Z,93.78
2023-03-15T18:55:55.673Z,93.99
2023-03-15T18:58:45.177Z,94.23
2023-03-15T19:01:34.483Z,94.19
2023-03-15T19:04:25.430Z,94.60
2023-03-15T19:07:14.770Z,94.45
2023-03-15T19:10:04.333Z,94.47
2023-03-15T19:12:54.456Z,94.77
2023-03-15T19:15:44.038Z,94.65
2023-03-15T19:18:33.987Z,94.80
2023-03-15T19:21:26.510Z,94.81
2023-03-15T19:24:15.798Z,94.99
2023-03-15T19:27:05.168Z,95.11
2023-03-15T19:29:54.490Z,95.33
2023-03-15T19:32:44.003Z,94.78
2023-03-15T19:35:33.784Z,94.79
2023-03-15T19:38:24.600Z,94.85
2023-03-15T19:41:13.752Z,95.15
2023-03-15T19:44:03.168Z,95.41
2023-03-15T19:46:52.447Z,95.17
2023-03-15T19:49:41.681Z,95.51
2023-03-15T19:52:33.249Z,95.17
2023-03-15T19:55:27.941Z,95.18
2023-03-15T19:58:19.638Z,95.40
2023-03-15T20:01:09.207Z,95.64
2023-03-15T20:03:58.507Z,95.59
2023-03-15T20:06:47.762Z,96.18
2023-03-15T20:09:38.963Z,95.21
2023-03-15T20:12:29.610Z,95.66
2023-03-15T20:15:21.082Z,95.40
2023-03-15T20:18:13.109Z,95.19
2023-03-15T20:21:02.377Z,95.22
2023-03-15T20:23:52.206Z,94.70
2023-03-15T20:26:41.526Z,94.99
2023-03-15T20:29:33.034Z,94.53
2023-03-15T20:32:22.325Z,95.04
2023-03-15T20:35:12.416Z,95.15
2023-03-15T20:38:06.698Z,94.82
2023-03-15T20:40:56.969Z,94.96
2023-03-15T20:43:46.646Z,95.11
2023-03-15T20:46:38.193Z,94.42
2023-03-15T20:49:29.361Z,95.05
2023-03-15T20:52:20.088Z,94.76
2023-03-15T20:55:10.660Z,94.52
2023-03-15T20:58:00.339Z,94.85
2023-03-15T21:00:50.870Z,94.19
2023-03-15T21:03:44.118Z,93.77
2023-03-15T21:06:33.886Z,93.75
2023-03-15T21:09:23.216Z,94.55
2023-03-15T21:12:14.700Z,94.11
2023-03-15T21:15:06.069Z,93.30
2023-03-15T21:17:55.539Z,93.78
2023-03-15T21:20:46.562Z,93.67
2023-03-15T21:23:36.327Z,93.71
2023-03-15T21:26:25.533Z,92.92
2023-03-15T21:29:14.744Z,92.76
2023-03-15T21:32:05.625Z,92.63
2023-03-15T21:34:54.816Z,92.75
2023-03-15T21:37:45.723Z,93.08
2023-03-15T21:40:35.438Z,92.78
2023-03-15T21:43:24.774Z,92.66
2023-03-15T21:46:14.376Z,92.74
2023-03-15T21:49:04.160Z,92.86
2023-03-15T21:51:53.405Z,92.66
2023-03-15T21:54:45.033Z,92.52
2023-03-15T21:57:34.941Z,92.69
2023-03-15T22:00:24.869Z,92.62
2023-03-15T22:03:14.384Z,92.40
2023-03-15T22:06:04.320Z,93.17
2023-03-15T22:08:53.729Z,93.11
2023-03-15T22:11:44.412Z,92.62
2023-03-15T22:14:33.693Z,93.00
2023-03-15T22:17:23.003Z,92.98
2023-03-15T22:20:16.930Z,92.48
2023-03-15T22:23:06.865Z,92.30
2023-03-15T22:25:57.289Z,92.47
2023-03-15T22:28:48.103Z,92.62
2023-03-15T22:31:38.274Z,93.16
2023-03-15T22:34:27.676Z,93.08
2023-03-15T22:37:17.000Z,93.12
2023-03-15T22:40:07.544Z,93.41
2023-03-15T22:42:58.429Z,93.57
2023-03-15T22:45:49.001Z,93.26
2023-03-15T22:48:38.425Z,93.54
2023-03-15T22:51:27.849Z,93.44
2023-03-15T22:54:17.260Z,93.39
2023-03-15T22:57:06.914Z,93.51
2023-03-15T22:59:56.424Z,93.29
2023-03-15T23:02:47.270Z,93.04
2023-03-15T23:05:36.709Z,93.17
2023-03-15T23:08:26.886Z,93.73
2023-03-15T23:11:16.180Z,94.00
2023-03-15T23:14:05.622Z,94.17
2023-03-15T23:16:55.037Z,93.95
2023-03-15T23:19:46.266Z,93.56
2023-03-15T23:22:36.435Z,93.70
2023-03-15T23:25:30.014Z,93.80
2023-03-15T23:28:21.890Z,93.16
2023-03-15T23:31:11.727Z,93.33
2023-03-15T23:34:01.032Z,93.67
2023-03-15T23:36:51.907Z,93.15
2023-03-15T23:39:41.691Z,92.96
2023-03-15T23:42:32.724Z,93.65
2023-03-15T23:45:21.995Z,93.19
2023-03-15T23:48:12.575Z,93.70
2023-03-15T23:51:04.030Z,93.12
2023-03-15T23:53:54.700Z,93.26
2023-03-15T23:56:43.891Z,93.27
2023-03-15T23:59:33.067Z,93.38
